Accueil
METAR-TAF:

METAR-TAF

Aéroports :

Beauvechain, Belgique

Base aérienne de Beauvechain

latitude: 50-45N, longitude: 004-46E, altitude: 105 m

Observation

Le bulletin a été fait il y a 41 minutes, à 04:55 UTC
Vent 7 kt de sud/sud-ouest
Température 4°C
Humidité 65%
Pression 1019 hPa
Visibilité 10 km ou plus
Quelques nuages à une hauteur de 25000 ft

METAR: EBBE 240455Z 21007KT 9999 FEW250 04/M02 Q1019 BLU BLU

Heure: 07:36 (05:36 UTC)


TAF: absent

Observations et prévisions météorologiques de plus de 4000 aéroports (messages METAR et TAF).

Les stations disponibles sont représentées par des disques jaunes et rouges sur la carte.

Passer la souris dessus pour voir le nom de la station.

Cliquer dessus pour voir les observations et prévisions météorologiques.

Pour changer de carte: cliquez sur les boutons verts avec une croix noire pour zoomer, sur le bouton vert avec un tiret pour effectuer un zoom arrière, ou sur les flèches vertes pour les cartes adjacentes.


METAR-TAF: